sensor_id;sensor_type;location;lat;lon;timestamp;P1;durP1;ratioP1;P2;durP2;ratioP2
5612;SDS011;63463;53.586;9.928;2024-02-21T00:02:18;218.37;;;36.30;;
5612;SDS011;63463;53.586;9.928;2024-02-21T00:04:44;211.03;;;36.10;;
5612;SDS011;63463;53.586;9.928;2024-02-21T00:07:10;218.43;;;34.73;;
5612;SDS011;63463;53.586;9.928;2024-02-21T00:09:36;226.27;;;38.37;;
5612;SDS011;63463;53.586;9.928;2024-02-21T00:12:02;230.43;;;37.33;;
5612;SDS011;63463;53.586;9.928;2024-02-21T00:14:30;199.07;;;35.80;;
5612;SDS011;63463;53.586;9.928;2024-02-21T00:16:56;202.67;;;36.40;;
5612;SDS011;63463;53.586;9.928;2024-02-21T00:19:22;209.90;;;36.73;;
5612;SDS011;63463;53.586;9.928;2024-02-21T00:21:48;204.07;;;37.17;;
5612;SDS011;63463;53.586;9.928;2024-02-21T00:24:13;229.67;;;38.03;;
5612;SDS011;63463;53.586;9.928;2024-02-21T00:26:39;220.57;;;38.80;;
5612;SDS011;63463;53.586;9.928;2024-02-21T00:29:05;209.67;;;34.97;;
5612;SDS011;63463;53.586;9.928;2024-02-21T00:31:31;202.40;;;36.87;;
5612;SDS011;63463;53.586;9.928;2024-02-21T00:33:57;221.77;;;35.97;;
5612;SDS011;63463;53.586;9.928;2024-02-21T00:36:23;194.40;;;36.10;;
5612;SDS011;63463;53.586;9.928;2024-02-21T00:38:49;205.90;;;35.90;;
5612;SDS011;63463;53.586;9.928;2024-02-21T00:41:15;198.07;;;33.57;;
5612;SDS011;63463;53.586;9.928;2024-02-21T00:43:41;189.67;;;36.70;;
5612;SDS011;63463;53.586;9.928;2024-02-21T00:46:07;199.00;;;35.50;;
5612;SDS011;63463;53.586;9.928;2024-02-21T00:48:33;206.00;;;34.50;;
5612;SDS011;63463;53.586;9.928;2024-02-21T00:50:59;223.33;;;35.73;;
5612;SDS011;63463;53.586;9.928;2024-02-21T00:53:25;208.63;;;35.60;;
5612;SDS011;63463;53.586;9.928;2024-02-21T00:55:51;202.20;;;35.07;;
5612;SDS011;63463;53.586;9.928;2024-02-21T00:58:17;218.53;;;36.80;;
5612;SDS011;63463;53.586;9.928;2024-02-21T01:00:43;205.30;;;34.73;;
5612;SDS011;63463;53.586;9.928;2024-02-21T01:03:09;230.13;;;37.40;;
5612;SDS011;63463;53.586;9.928;2024-02-21T01:05:35;212.00;;;37.47;;
5612;SDS011;63463;53.586;9.928;2024-02-21T01:08:00;211.23;;;34.83;;
5612;SDS011;63463;53.586;9.928;2024-02-21T01:10:26;206.37;;;36.17;;
5612;SDS011;63463;53.586;9.928;2024-02-21T01:12:52;204.93;;;35.93;;
5612;SDS011;63463;53.586;9.928;2024-02-21T01:15:18;203.80;;;35.90;;
5612;SDS011;63463;53.586;9.928;2024-02-21T01:17:44;195.07;;;35.20;;
5612;SDS011;63463;53.586;9.928;2024-02-21T01:20:10;210.50;;;36.90;;
5612;SDS011;63463;53.586;9.928;2024-02-21T01:22:36;199.67;;;35.10;;
5612;SDS011;63463;53.586;9.928;2024-02-21T01:25:02;209.60;;;37.17;;
5612;SDS011;63463;53.586;9.928;2024-02-21T01:27:28;196.73;;;35.83;;
5612;SDS011;63463;53.586;9.928;2024-02-21T01:29:54;198.77;;;34.47;;
5612;SDS011;63463;53.586;9.928;2024-02-21T01:32:21;204.77;;;35.60;;
5612;SDS011;63463;53.586;9.928;2024-02-21T01:34:49;203.77;;;35.00;;
5612;SDS011;63463;53.586;9.928;2024-02-21T01:37:15;190.83;;;34.97;;
5612;SDS011;63463;53.586;9.928;2024-02-21T01:39:41;209.80;;;34.90;;
5612;SDS011;63463;53.586;9.928;2024-02-21T01:42:07;186.47;;;32.83;;
5612;SDS011;63463;53.586;9.928;2024-02-21T01:44:34;203.83;;;34.93;;
5612;SDS011;63463;53.586;9.928;2024-02-21T01:47:00;205.83;;;34.80;;
5612;SDS011;63463;53.586;9.928;2024-02-21T01:49:26;200.27;;;34.43;;
5612;SDS011;63463;53.586;9.928;2024-02-21T01:51:52;200.20;;;33.60;;
5612;SDS011;63463;53.586;9.928;2024-02-21T01:54:18;210.20;;;35.90;;
5612;SDS011;63463;53.586;9.928;2024-02-21T01:56:45;207.90;;;33.87;;
5612;SDS011;63463;53.586;9.928;2024-02-21T01:59:11;195.50;;;33.17;;
5612;SDS011;63463;53.586;9.928;2024-02-21T02:01:39;221.30;;;36.83;;
5612;SDS011;63463;53.586;9.928;2024-02-21T02:04:05;212.37;;;34.90;;
5612;SDS011;63463;53.586;9.928;2024-02-21T02:06:31;200.80;;;36.37;;
5612;SDS011;63463;53.586;9.928;2024-02-21T02:08:57;204.00;;;34.00;;
5612;SDS011;63463;53.586;9.928;2024-02-21T02:11:23;215.17;;;38.10;;
5612;SDS011;63463;53.586;9.928;2024-02-21T02:13:49;199.93;;;35.30;;
5612;SDS011;63463;53.586;9.928;2024-02-21T02:16:15;205.40;;;35.00;;
5612;SDS011;63463;53.586;9.928;2024-02-21T02:18:41;217.53;;;37.60;;
5612;SDS011;63463;53.586;9.928;2024-02-21T02:21:11;203.67;;;37.20;;
5612;SDS011;63463;53.586;9.928;2024-02-21T02:23:39;214.63;;;38.90;;
5612;SDS011;63463;53.586;9.928;2024-02-21T02:26:05;215.73;;;39.90;;
5612;SDS011;63463;53.586;9.928;2024-02-21T02:28:32;224.93;;;39.97;;
5612;SDS011;63463;53.586;9.928;2024-02-21T02:30:58;211.33;;;37.40;;
5612;SDS011;63463;53.586;9.928;2024-02-21T02:33:24;241.10;;;41.70;;
5612;SDS011;63463;53.586;9.928;2024-02-21T02:35:50;221.40;;;40.03;;
5612;SDS011;63463;53.586;9.928;2024-02-21T02:38:16;238.50;;;43.37;;
5612;SDS011;63463;53.586;9.928;2024-02-21T02:40:42;217.03;;;42.00;;
5612;SDS011;63463;53.586;9.928;2024-02-21T02:43:08;229.10;;;40.70;;
5612;SDS011;63463;53.586;9.928;2024-02-21T02:45:34;233.83;;;40.77;;
5612;SDS011;63463;53.586;9.928;2024-02-21T02:48:00;232.53;;;42.40;;
5612;SDS011;63463;53.586;9.928;2024-02-21T02:50:26;226.33;;;45.40;;
5612;SDS011;63463;53.586;9.928;2024-02-21T02:52:53;242.80;;;42.80;;
5612;SDS011;63463;53.586;9.928;2024-02-21T02:55:19;225.23;;;41.60;;
5612;SDS011;63463;53.586;9.928;2024-02-21T02:57:45;232.90;;;41.73;;
5612;SDS011;63463;53.586;9.928;2024-02-21T03:00:11;251.07;;;45.40;;
5612;SDS011;63463;53.586;9.928;2024-02-21T03:02:38;233.00;;;42.87;;
5612;SDS011;63463;53.586;9.928;2024-02-21T03:05:11;225.83;;;41.30;;
5612;SDS011;63463;53.586;9.928;2024-02-21T03:07:37;237.73;;;45.17;;
5612;SDS011;63463;53.586;9.928;2024-02-21T03:10:03;246.00;;;40.80;;
5612;SDS011;63463;53.586;9.928;2024-02-21T03:12:29;228.37;;;41.20;;
5612;SDS011;63463;53.586;9.928;2024-02-21T03:14:55;251.27;;;44.10;;
5612;SDS011;63463;53.586;9.928;2024-02-21T03:17:21;234.60;;;42.90;;
5612;SDS011;63463;53.586;9.928;2024-02-21T03:19:48;246.50;;;46.03;;
5612;SDS011;63463;53.586;9.928;2024-02-21T03:22:14;227.87;;;42.60;;
5612;SDS011;63463;53.586;9.928;2024-02-21T03:24:41;224.93;;;41.07;;
5612;SDS011;63463;53.586;9.928;2024-02-21T03:27:07;231.37;;;41.53;;
5612;SDS011;63463;53.586;9.928;2024-02-21T03:29:33;244.53;;;45.10;;
5612;SDS011;63463;53.586;9.928;2024-02-21T03:31:59;238.43;;;46.00;;
5612;SDS011;63463;53.586;9.928;2024-02-21T03:34:25;218.43;;;41.90;;
5612;SDS011;63463;53.586;9.928;2024-02-21T03:36:51;227.27;;;40.10;;
5612;SDS011;63463;53.586;9.928;2024-02-21T03:39:16;246.47;;;40.10;;
5612;SDS011;63463;53.586;9.928;2024-02-21T03:41:42;214.10;;;38.93;;
5612;SDS011;63463;53.586;9.928;2024-02-21T03:44:08;201.33;;;35.33;;
5612;SDS011;63463;53.586;9.928;2024-02-21T03:46:34;241.87;;;38.13;;
5612;SDS011;63463;53.586;9.928;2024-02-21T03:49:00;211.73;;;36.90;;
5612;SDS011;63463;53.586;9.928;2024-02-21T03:51:26;215.07;;;38.70;;
5612;SDS011;63463;53.586;9.928;2024-02-21T03:53:52;202.80;;;37.50;;
5612;SDS011;63463;53.586;9.928;2024-02-21T03:56:18;225.03;;;38.60;;
5612;SDS011;63463;53.586;9.928;2024-02-21T03:58:44;223.00;;;39.20;;
5612;SDS011;63463;53.586;9.928;2024-02-21T04:01:10;199.00;;;37.30;;
5612;SDS011;63463;53.586;9.928;2024-02-21T04:03:36;204.57;;;39.00;;
5612;SDS011;63463;53.586;9.928;2024-02-21T04:06:02;206.33;;;36.83;;
5612;SDS011;63463;53.586;9.928;2024-02-21T04:08:28;211.73;;;36.80;;
5612;SDS011;63463;53.586;9.928;2024-02-21T04:10:54;213.30;;;37.63;;
5612;SDS011;63463;53.586;9.928;2024-02-21T04:13:20;221.43;;;38.07;;
5612;SDS011;63463;53.586;9.928;2024-02-21T04:15:47;201.27;;;37.93;;
5612;SDS011;63463;53.586;9.928;2024-02-21T04:18:13;223.67;;;38.33;;
5612;SDS011;63463;53.586;9.928;2024-02-21T04:20:40;227.03;;;36.83;;
5612;SDS011;63463;53.586;9.928;2024-02-21T04:23:06;220.37;;;37.60;;
5612;SDS011;63463;53.586;9.928;2024-02-21T04:25:32;214.33;;;37.20;;
5612;SDS011;63463;53.586;9.928;2024-02-21T04:27:58;220.00;;;35.40;;
5612;SDS011;63463;53.586;9.928;2024-02-21T04:30:23;195.60;;;35.13;;
5612;SDS011;63463;53.586;9.928;2024-02-21T04:32:49;198.67;;;35.00;;
5612;SDS011;63463;53.586;9.928;2024-02-21T04:35:16;197.13;;;33.07;;
5612;SDS011;63463;53.586;9.928;2024-02-21T04:37:42;193.87;;;33.77;;
5612;SDS011;63463;53.586;9.928;2024-02-21T04:40:08;201.27;;;32.97;;
5612;SDS011;63463;53.586;9.928;2024-02-21T04:42:34;198.70;;;33.07;;
5612;SDS011;63463;53.586;9.928;2024-02-21T04:45:00;197.97;;;33.20;;
5612;SDS011;63463;53.586;9.928;2024-02-21T04:47:26;192.00;;;32.80;;
5612;SDS011;63463;53.586;9.928;2024-02-21T04:49:52;214.97;;;34.03;;
5612;SDS011;63463;53.586;9.928;2024-02-21T04:52:18;188.77;;;34.60;;
5612;SDS011;63463;53.586;9.928;2024-02-21T04:54:44;201.73;;;33.47;;
5612;SDS011;63463;53.586;9.928;2024-02-21T04:57:09;191.40;;;33.67;;
5612;SDS011;63463;53.586;9.928;2024-02-21T04:59:36;192.80;;;32.90;;
5612;SDS011;63463;53.586;9.928;2024-02-21T05:02:02;189.47;;;33.50;;
5612;SDS011;63463;53.586;9.928;2024-02-21T05:04:28;191.37;;;34.60;;
5612;SDS011;63463;53.586;9.928;2024-02-21T05:06:54;197.23;;;31.87;;
5612;SDS011;63463;53.586;9.928;2024-02-21T05:09:20;187.23;;;31.27;;
5612;SDS011;63463;53.586;9.928;2024-02-21T05:11:46;185.55;;;31.05;;
5612;SDS011;63463;53.586;9.928;2024-02-21T05:14:12;195.97;;;32.00;;
5612;SDS011;63463;53.586;9.928;2024-02-21T05:16:38;205.87;;;30.33;;
5612;SDS011;63463;53.586;9.928;2024-02-21T05:19:05;186.47;;;29.43;;
5612;SDS011;63463;53.586;9.928;2024-02-21T05:21:31;195.23;;;32.00;;
5612;SDS011;63463;53.586;9.928;2024-02-21T05:23:56;182.57;;;31.30;;
5612;SDS011;63463;53.586;9.928;2024-02-21T05:26:23;188.90;;;31.20;;
5612;SDS011;63463;53.586;9.928;2024-02-21T05:28:49;180.93;;;32.07;;
5612;SDS011;63463;53.586;9.928;2024-02-21T05:31:16;185.27;;;29.77;;
5612;SDS011;63463;53.586;9.928;2024-02-21T05:33:42;178.50;;;28.70;;
5612;SDS011;63463;53.586;9.928;2024-02-21T05:36:08;185.10;;;29.53;;
5612;SDS011;63463;53.586;9.928;2024-02-21T05:38:34;194.37;;;30.17;;
5612;SDS011;63463;53.586;9.928;2024-02-21T05:41:00;191.23;;;30.40;;
5612;SDS011;63463;53.586;9.928;2024-02-21T05:43:26;186.83;;;28.30;;
5612;SDS011;63463;53.586;9.928;2024-02-21T05:45:52;186.17;;;28.80;;
5612;SDS011;63463;53.586;9.928;2024-02-21T05:48:18;179.07;;;29.63;;
5612;SDS011;63463;53.586;9.928;2024-02-21T05:50:44;195.53;;;29.17;;
5612;SDS011;63463;53.586;9.928;2024-02-21T05:53:10;180.10;;;27.23;;
5612;SDS011;63463;53.586;9.928;2024-02-21T05:55:36;181.07;;;27.60;;
5612;SDS011;63463;53.586;9.928;2024-02-21T05:58:02;191.73;;;29.47;;
5612;SDS011;63463;53.586;9.928;2024-02-21T06:00:28;176.70;;;28.73;;
5612;SDS011;63463;53.586;9.928;2024-02-21T06:02:54;179.17;;;28.00;;
5612;SDS011;63463;53.586;9.928;2024-02-21T06:05:20;176.27;;;26.43;;
5612;SDS011;63463;53.586;9.928;2024-02-21T06:07:46;168.03;;;25.30;;
5612;SDS011;63463;53.586;9.928;2024-02-21T06:10:12;174.87;;;26.00;;
5612;SDS011;63463;53.586;9.928;2024-02-21T06:12:38;162.37;;;23.83;;
5612;SDS011;63463;53.586;9.928;2024-02-21T06:15:04;164.03;;;23.73;;
5612;SDS011;63463;53.586;9.928;2024-02-21T06:17:31;170.27;;;24.17;;
5612;SDS011;63463;53.586;9.928;2024-02-21T06:19:57;166.77;;;24.80;;
5612;SDS011;63463;53.586;9.928;2024-02-21T06:22:23;172.27;;;26.03;;
5612;SDS011;63463;53.586;9.928;2024-02-21T06:24:49;167.77;;;25.63;;
5612;SDS011;63463;53.586;9.928;2024-02-21T06:27:15;170.07;;;25.40;;
5612;SDS011;63463;53.586;9.928;2024-02-21T06:29:42;170.43;;;26.47;;
5612;SDS011;63463;53.586;9.928;2024-02-21T06:32:08;173.00;;;25.80;;
5612;SDS011;63463;53.586;9.928;2024-02-21T06:34:34;162.87;;;22.97;;
5612;SDS011;63463;53.586;9.928;2024-02-21T06:36:59;168.07;;;23.97;;
5612;SDS011;63463;53.586;9.928;2024-02-21T06:39:25;182.70;;;23.77;;
5612;SDS011;63463;53.586;9.928;2024-02-21T06:41:53;168.80;;;25.20;;
5612;SDS011;63463;53.586;9.928;2024-02-21T06:44:20;158.57;;;22.33;;
5612;SDS011;63463;53.586;9.928;2024-02-21T06:46:47;165.63;;;24.37;;
5612;SDS011;63463;53.586;9.928;2024-02-21T06:49:13;158.77;;;21.83;;
5612;SDS011;63463;53.586;9.928;2024-02-21T06:51:42;160.80;;;23.60;;
5612;SDS011;63463;53.586;9.928;2024-02-21T06:54:08;165.30;;;22.87;;
5612;SDS011;63463;53.586;9.928;2024-02-21T06:56:37;163.60;;;23.93;;
5612;SDS011;63463;53.586;9.928;2024-02-21T06:59:03;166.93;;;22.50;;
5612;SDS011;63463;53.586;9.928;2024-02-21T07:01:29;164.40;;;23.43;;
5612;SDS011;63463;53.586;9.928;2024-02-21T07:03:55;164.47;;;23.30;;
5612;SDS011;63463;53.586;9.928;2024-02-21T07:06:22;168.13;;;24.57;;
5612;SDS011;63463;53.586;9.928;2024-02-21T07:08:48;164.70;;;22.93;;
5612;SDS011;63463;53.586;9.928;2024-02-21T07:11:14;173.30;;;25.50;;
5612;SDS011;63463;53.586;9.928;2024-02-21T07:13:39;168.20;;;24.57;;
5612;SDS011;63463;53.586;9.928;2024-02-21T07:16:06;169.37;;;24.33;;
5612;SDS011;63463;53.586;9.928;2024-02-21T07:18:32;174.60;;;25.00;;
5612;SDS011;63463;53.586;9.928;2024-02-21T07:20:58;172.90;;;23.63;;
5612;SDS011;63463;53.586;9.928;2024-02-21T07:23:24;172.60;;;23.60;;
5612;SDS011;63463;53.586;9.928;2024-02-21T07:25:50;167.57;;;23.17;;
5612;SDS011;63463;53.586;9.928;2024-02-21T07:28:15;175.17;;;25.20;;
5612;SDS011;63463;53.586;9.928;2024-02-21T07:30:42;169.23;;;23.20;;
5612;SDS011;63463;53.586;9.928;2024-02-21T07:33:08;166.60;;;23.80;;
5612;SDS011;63463;53.586;9.928;2024-02-21T07:35:34;167.17;;;24.97;;
5612;SDS011;63463;53.586;9.928;2024-02-21T07:38:02;168.00;;;24.50;;
5612;SDS011;63463;53.586;9.928;2024-02-21T07:40:28;163.70;;;23.27;;
5612;SDS011;63463;53.586;9.928;2024-02-21T07:42:54;168.67;;;23.63;;
5612;SDS011;63463;53.586;9.928;2024-02-21T07:45:20;168.27;;;24.43;;
5612;SDS011;63463;53.586;9.928;2024-02-21T07:47:48;173.53;;;24.83;;
5612;SDS011;63463;53.586;9.928;2024-02-21T07:50:14;165.57;;;24.20;;
5612;SDS011;63463;53.586;9.928;2024-02-21T07:52:40;160.67;;;22.20;;
5612;SDS011;63463;53.586;9.928;2024-02-21T07:55:07;162.60;;;22.70;;
5612;SDS011;63463;53.586;9.928;2024-02-21T07:57:33;178.10;;;24.50;;
5612;SDS011;63463;53.586;9.928;2024-02-21T07:59:59;160.63;;;22.40;;
5612;SDS011;63463;53.586;9.928;2024-02-21T08:02:25;168.90;;;21.90;;
5612;SDS011;63463;53.586;9.928;2024-02-21T08:04:51;165.43;;;22.77;;
5612;SDS011;63463;53.586;9.928;2024-02-21T08:07:16;180.80;;;23.00;;
5612;SDS011;63463;53.586;9.928;2024-02-21T08:09:42;168.40;;;22.73;;
5612;SDS011;63463;53.586;9.928;2024-02-21T08:12:08;172.53;;;22.40;;
5612;SDS011;63463;53.586;9.928;2024-02-21T08:14:34;181.60;;;22.93;;
5612;SDS011;63463;53.586;9.928;2024-02-21T08:17:00;176.77;;;22.93;;
5612;SDS011;63463;53.586;9.928;2024-02-21T08:19:26;182.40;;;23.00;;
5612;SDS011;63463;53.586;9.928;2024-02-21T08:21:52;171.57;;;22.77;;
5612;SDS011;63463;53.586;9.928;2024-02-21T08:24:18;200.17;;;22.20;;
5612;SDS011;63463;53.586;9.928;2024-02-21T08:26:44;170.43;;;22.77;;
5612;SDS011;63463;53.586;9.928;2024-02-21T08:29:10;180.90;;;22.50;;
5612;SDS011;63463;53.586;9.928;2024-02-21T08:31:37;166.17;;;21.57;;
5612;SDS011;63463;53.586;9.928;2024-02-21T08:34:03;188.43;;;24.03;;
5612;SDS011;63463;53.586;9.928;2024-02-21T08:36:35;165.80;;;22.30;;
5612;SDS011;63463;53.586;9.928;2024-02-21T08:39:02;174.60;;;22.93;;
5612;SDS011;63463;53.586;9.928;2024-02-21T08:41:32;175.23;;;23.77;;
5612;SDS011;63463;53.586;9.928;2024-02-21T08:43:58;173.67;;;23.00;;
5612;SDS011;63463;53.586;9.928;2024-02-21T08:46:24;176.80;;;22.57;;
5612;SDS011;63463;53.586;9.928;2024-02-21T08:48:51;170.97;;;21.90;;
5612;SDS011;63463;53.586;9.928;2024-02-21T08:51:17;181.30;;;21.23;;
5612;SDS011;63463;53.586;9.928;2024-02-21T08:53:43;173.70;;;22.47;;
5612;SDS011;63463;53.586;9.928;2024-02-21T08:56:09;169.17;;;21.77;;
5612;SDS011;63463;53.586;9.928;2024-02-21T08:58:36;169.70;;;21.60;;
5612;SDS011;63463;53.586;9.928;2024-02-21T09:01:02;172.93;;;21.40;;
5612;SDS011;63463;53.586;9.928;2024-02-21T09:03:34;177.20;;;22.10;;
5612;SDS011;63463;53.586;9.928;2024-02-21T09:06:00;170.67;;;21.40;;
5612;SDS011;63463;53.586;9.928;2024-02-21T09:08:26;164.87;;;21.97;;
5612;SDS011;63463;53.586;9.928;2024-02-21T09:10:53;178.50;;;23.83;;
5612;SDS011;63463;53.586;9.928;2024-02-21T09:13:19;185.50;;;20.87;;
5612;SDS011;63463;53.586;9.928;2024-02-21T09:15:45;175.80;;;22.40;;
5612;SDS011;63463;53.586;9.928;2024-02-21T09:18:11;177.43;;;22.83;;
5612;SDS011;63463;53.586;9.928;2024-02-21T09:20:37;168.87;;;20.00;;
5612;SDS011;63463;53.586;9.928;2024-02-21T09:23:03;184.20;;;20.63;;
5612;SDS011;63463;53.586;9.928;2024-02-21T09:25:29;159.33;;;21.60;;
5612;SDS011;63463;53.586;9.928;2024-02-21T09:27:55;177.23;;;21.00;;
5612;SDS011;63463;53.586;9.928;2024-02-21T09:30:23;171.70;;;21.53;;
5612;SDS011;63463;53.586;9.928;2024-02-21T09:32:49;161.93;;;21.67;;
5612;SDS011;63463;53.586;9.928;2024-02-21T09:35:15;170.40;;;22.73;;
5612;SDS011;63463;53.586;9.928;2024-02-21T09:37:41;168.77;;;23.23;;
5612;SDS011;63463;53.586;9.928;2024-02-21T09:40:07;163.47;;;22.00;;
5612;SDS011;63463;53.586;9.928;2024-02-21T09:44:59;163.00;;;21.17;;
5612;SDS011;63463;53.586;9.928;2024-02-21T09:47:30;162.87;;;21.70;;
5612;SDS011;63463;53.586;9.928;2024-02-21T09:49:59;153.87;;;20.20;;
5612;SDS011;63463;53.586;9.928;2024-02-21T09:52:26;158.03;;;21.37;;
5612;SDS011;63463;53.586;9.928;2024-02-21T09:54:52;154.50;;;21.00;;
5612;SDS011;63463;53.586;9.928;2024-02-21T09:57:19;159.33;;;21.27;;
5612;SDS011;63463;53.586;9.928;2024-02-21T09:59:45;156.97;;;21.10;;
5612;SDS011;63463;53.586;9.928;2024-02-21T10:02:11;160.00;;;19.77;;
5612;SDS011;63463;53.586;9.928;2024-02-21T10:04:39;164.40;;;21.13;;
5612;SDS011;63463;53.586;9.928;2024-02-21T10:07:05;157.27;;;21.20;;
5612;SDS011;63463;53.586;9.928;2024-02-21T10:09:32;159.50;;;20.77;;
5612;SDS011;63463;53.586;9.928;2024-02-21T10:12:11;155.27;;;21.70;;
5612;SDS011;63463;53.586;9.928;2024-02-21T10:14:37;155.63;;;21.30;;
5612;SDS011;63463;53.586;9.928;2024-02-21T10:17:03;161.20;;;22.40;;
5612;SDS011;63463;53.586;9.928;2024-02-21T10:19:34;159.87;;;24.30;;
5612;SDS011;63463;53.586;9.928;2024-02-21T10:22:09;177.20;;;25.40;;
5612;SDS011;63463;53.586;9.928;2024-02-21T10:24:35;168.17;;;24.73;;
5612;SDS011;63463;53.586;9.928;2024-02-21T10:27:08;171.27;;;24.77;;
5612;SDS011;63463;53.586;9.928;2024-02-21T10:29:36;172.63;;;27.53;;
5612;SDS011;63463;53.586;9.928;2024-02-21T10:32:05;181.17;;;27.80;;
5612;SDS011;63463;53.586;9.928;2024-02-21T10:34:32;181.83;;;30.30;;
5612;SDS011;63463;53.586;9.928;2024-02-21T10:37:05;192.60;;;32.70;;
5612;SDS011;63463;53.586;9.928;2024-02-21T10:39:36;191.07;;;33.97;;
5612;SDS011;63463;53.586;9.928;2024-02-21T10:42:04;194.53;;;34.97;;
5612;SDS011;63463;53.586;9.928;2024-02-21T10:44:31;201.47;;;34.80;;
5612;SDS011;63463;53.586;9.928;2024-02-21T10:46:57;201.13;;;34.50;;
5612;SDS011;63463;53.586;9.928;2024-02-21T10:49:24;207.43;;;34.47;;
5612;SDS011;63463;53.586;9.928;2024-02-21T10:51:50;211.73;;;36.20;;
5612;SDS011;63463;53.586;9.928;2024-02-21T10:56:49;198.70;;;34.93;;
5612;SDS011;63463;53.586;9.928;2024-02-21T10:59:16;214.47;;;36.90;;
5612;SDS011;63463;53.586;9.928;2024-02-21T11:01:43;196.57;;;33.33;;
5612;SDS011;63463;53.586;9.928;2024-02-21T11:04:09;201.83;;;35.50;;
5612;SDS011;63463;53.586;9.928;2024-02-21T11:06:38;200.77;;;35.70;;
5612;SDS011;63463;53.586;9.928;2024-02-21T11:09:06;210.23;;;37.40;;
5612;SDS011;63463;53.586;9.928;2024-02-21T11:11:33;205.63;;;35.57;;
5612;SDS011;63463;53.586;9.928;2024-02-21T11:14:08;202.87;;;34.40;;
5612;SDS011;63463;53.586;9.928;2024-02-21T11:16:37;208.37;;;35.63;;
5612;SDS011;63463;53.586;9.928;2024-02-21T11:19:19;211.13;;;32.73;;
5612;SDS011;63463;53.586;9.928;2024-02-21T11:21:45;199.57;;;34.53;;
5612;SDS011;63463;53.586;9.928;2024-02-21T11:24:11;211.83;;;34.20;;
5612;SDS011;63463;53.586;9.928;2024-02-21T11:26:37;201.53;;;36.00;;
5612;SDS011;63463;53.586;9.928;2024-02-21T11:29:03;193.03;;;31.03;;
5612;SDS011;63463;53.586;9.928;2024-02-21T11:31:40;198.30;;;32.23;;
5612;SDS011;63463;53.586;9.928;2024-02-21T11:34:10;198.83;;;31.97;;
5612;SDS011;63463;53.586;9.928;2024-02-21T11:36:36;188.27;;;30.30;;
5612;SDS011;63463;53.586;9.928;2024-02-21T11:39:05;189.67;;;30.37;;
5612;SDS011;63463;53.586;9.928;2024-02-21T11:41:31;196.40;;;29.60;;
5612;SDS011;63463;53.586;9.928;2024-02-21T11:43:57;200.27;;;32.50;;
5612;SDS011;63463;53.586;9.928;2024-02-21T11:46:23;179.40;;;28.57;;
5612;SDS011;63463;53.586;9.928;2024-02-21T11:48:49;180.70;;;28.90;;
5612;SDS011;63463;53.586;9.928;2024-02-21T11:51:24;179.67;;;29.97;;
5612;SDS011;63463;53.586;9.928;2024-02-21T11:53:52;186.90;;;30.20;;
5612;SDS011;63463;53.586;9.928;2024-02-21T11:56:18;187.10;;;29.90;;
5612;SDS011;63463;53.586;9.928;2024-02-21T11:58:45;174.63;;;28.17;;
5612;SDS011;63463;53.586;9.928;2024-02-21T12:01:12;180.73;;;27.90;;
5612;SDS011;63463;53.586;9.928;2024-02-21T12:03:38;182.67;;;30.00;;
5612;SDS011;63463;53.586;9.928;2024-02-21T12:06:06;180.33;;;29.90;;
5612;SDS011;63463;53.586;9.928;2024-02-21T12:08:41;198.47;;;30.23;;
5612;SDS011;63463;53.586;9.928;2024-02-21T12:11:21;185.00;;;28.90;;
5612;SDS011;63463;53.586;9.928;2024-02-21T12:13:47;179.53;;;28.40;;
5612;SDS011;63463;53.586;9.928;2024-02-21T12:16:15;185.33;;;30.57;;
5612;SDS011;63463;53.586;9.928;2024-02-21T12:18:43;184.20;;;28.90;;
5612;SDS011;63463;53.586;9.928;2024-02-21T12:21:09;184.17;;;28.37;;
5612;SDS011;63463;53.586;9.928;2024-02-21T12:23:37;185.97;;;28.13;;
5612;SDS011;63463;53.586;9.928;2024-02-21T12:26:03;195.67;;;28.37;;
5612;SDS011;63463;53.586;9.928;2024-02-21T12:28:30;176.13;;;27.57;;
5612;SDS011;63463;53.586;9.928;2024-02-21T12:30:55;188.13;;;27.53;;
5612;SDS011;63463;53.586;9.928;2024-02-21T12:33:21;181.87;;;27.40;;
5612;SDS011;63463;53.586;9.928;2024-02-21T12:35:47;191.97;;;26.47;;
5612;SDS011;63463;53.586;9.928;2024-02-21T12:38:14;182.00;;;27.60;;
5612;SDS011;63463;53.586;9.928;2024-02-21T12:40:40;181.90;;;26.43;;
5612;SDS011;63463;53.586;9.928;2024-02-21T12:43:06;174.10;;;25.60;;
5612;SDS011;63463;53.586;9.928;2024-02-21T12:45:32;181.53;;;29.03;;
5612;SDS011;63463;53.586;9.928;2024-02-21T12:47:59;197.30;;;27.57;;
5612;SDS011;63463;53.586;9.928;2024-02-21T12:50:25;186.57;;;27.40;;
5612;SDS011;63463;53.586;9.928;2024-02-21T12:52:51;175.00;;;28.27;;
5612;SDS011;63463;53.586;9.928;2024-02-21T12:55:20;174.00;;;27.13;;
5612;SDS011;63463;53.586;9.928;2024-02-21T12:57:46;185.60;;;28.50;;
5612;SDS011;63463;53.586;9.928;2024-02-21T13:00:14;188.57;;;28.47;;
5612;SDS011;63463;53.586;9.928;2024-02-21T13:02:40;180.87;;;28.30;;
5612;SDS011;63463;53.586;9.928;2024-02-21T13:05:06;185.27;;;29.50;;
5612;SDS011;63463;53.586;9.928;2024-02-21T13:07:33;192.27;;;28.77;;
5612;SDS011;63463;53.586;9.928;2024-02-21T13:09:59;187.07;;;29.00;;
5612;SDS011;63463;53.586;9.928;2024-02-21T13:12:26;188.80;;;29.43;;
5612;SDS011;63463;53.586;9.928;2024-02-21T13:14:52;184.97;;;28.90;;
5612;SDS011;63463;53.586;9.928;2024-02-21T13:17:19;180.57;;;29.27;;
5612;SDS011;63463;53.586;9.928;2024-02-21T13:19:47;183.93;;;29.40;;
5612;SDS011;63463;53.586;9.928;2024-02-21T13:22:13;178.40;;;28.90;;
5612;SDS011;63463;53.586;9.928;2024-02-21T13:24:38;188.40;;;29.07;;
5612;SDS011;63463;53.586;9.928;2024-02-21T13:27:04;189.30;;;29.57;;
5612;SDS011;63463;53.586;9.928;2024-02-21T13:29:31;189.67;;;30.10;;
5612;SDS011;63463;53.586;9.928;2024-02-21T13:31:56;183.40;;;30.50;;
5612;SDS011;63463;53.586;9.928;2024-02-21T13:34:22;177.80;;;29.40;;
5612;SDS011;63463;53.586;9.928;2024-02-21T13:36:49;199.80;;;31.93;;
5612;SDS011;63463;53.586;9.928;2024-02-21T13:39:15;188.03;;;30.73;;
5612;SDS011;63463;53.586;9.928;2024-02-21T13:41:41;179.47;;;28.80;;
5612;SDS011;63463;53.586;9.928;2024-02-21T13:44:07;186.97;;;29.83;;
5612;SDS011;63463;53.586;9.928;2024-02-21T13:46:34;182.97;;;28.83;;
5612;SDS011;63463;53.586;9.928;2024-02-21T13:49:04;176.57;;;29.27;;
5612;SDS011;63463;53.586;9.928;2024-02-21T13:51:33;183.20;;;31.87;;
5612;SDS011;63463;53.586;9.928;2024-02-21T13:54:01;174.27;;;30.03;;
5612;SDS011;63463;53.586;9.928;2024-02-21T13:56:27;171.57;;;29.17;;
5612;SDS011;63463;53.586;9.928;2024-02-21T13:58:53;182.07;;;31.20;;
5612;SDS011;63463;53.586;9.928;2024-02-21T14:01:19;177.43;;;31.20;;
5612;SDS011;63463;53.586;9.928;2024-02-21T14:03:45;176.47;;;30.20;;
5612;SDS011;63463;53.586;9.928;2024-02-21T14:06:11;178.90;;;29.20;;
5612;SDS011;63463;53.586;9.928;2024-02-21T14:08:37;175.83;;;28.53;;
5612;SDS011;63463;53.586;9.928;2024-02-21T14:11:04;182.53;;;30.93;;
5612;SDS011;63463;53.586;9.928;2024-02-21T14:13:31;176.67;;;30.90;;
5612;SDS011;63463;53.586;9.928;2024-02-21T14:15:56;189.30;;;30.17;;
5612;SDS011;63463;53.586;9.928;2024-02-21T14:18:23;173.27;;;29.30;;
5612;SDS011;63463;53.586;9.928;2024-02-21T14:20:48;174.30;;;29.43;;
5612;SDS011;63463;53.586;9.928;2024-02-21T14:23:14;175.27;;;29.57;;